createdAt,value
2019-03-31T00:01:48.317Z,7.60
2019-03-31T00:04:17.948Z,7.70
2019-03-31T00:06:47.699Z,7.60
2019-03-31T00:09:17.515Z,7.70
2019-03-31T00:11:48.004Z,7.70
2019-03-31T00:14:17.818Z,7.70
2019-03-31T00:16:47.582Z,7.70
2019-03-31T00:19:17.090Z,7.70
2019-03-31T00:21:46.793Z,7.70
2019-03-31T00:24:16.279Z,7.60
2019-03-31T00:26:45.782Z,7.60
2019-03-31T00:29:15.431Z,7.60
2019-03-31T00:31:45.031Z,7.60
2019-03-31T00:34:14.546Z,7.70
2019-03-31T00:36:44.082Z,7.60
2019-03-31T00:39:13.712Z,7.60
2019-03-31T00:41:43.258Z,7.60
2019-03-31T00:44:12.957Z,7.60
2019-03-31T00:46:42.444Z,7.70
2019-03-31T00:49:12.113Z,7.70
2019-03-31T00:51:41.856Z,7.60
2019-03-31T00:54:11.506Z,7.60
2019-03-31T00:56:41.132Z,7.60
2019-03-31T00:59:11.020Z,7.50
2019-03-31T01:01:46.236Z,7.50
2019-03-31T01:04:17.560Z,7.40
2019-03-31T01:06:48.737Z,7.50
2019-03-31T01:09:23.407Z,7.50
2019-03-31T01:11:53.275Z,7.50
2019-03-31T01:14:23.425Z,7.50
2019-03-31T01:16:53.507Z,7.60
2019-03-31T01:19:24.201Z,7.80
2019-03-31T01:21:54.375Z,7.80
2019-03-31T01:24:24.304Z,7.80
2019-03-31T01:26:54.024Z,7.80
2019-03-31T01:29:23.493Z,7.90
2019-03-31T01:31:55.269Z,7.80
2019-03-31T01:34:25.084Z,7.90
2019-03-31T01:36:54.801Z,7.90
2019-03-31T01:39:26.880Z,7.90
2019-03-31T01:41:56.646Z,7.90
2019-03-31T01:44:26.466Z,8.00
2019-03-31T01:46:56.116Z,8.00
2019-03-31T01:49:25.577Z,8.00
2019-03-31T01:51:55.219Z,7.90
2019-03-31T01:54:24.940Z,7.90
2019-03-31T01:56:54.604Z,7.90
2019-03-31T01:59:24.277Z,7.90
2019-03-31T02:02:03.981Z,8.00
2019-03-31T02:04:25.720Z,8.10
2019-03-31T02:06:55.341Z,8.10
2019-03-31T02:09:24.948Z,8.10
2019-03-31T02:11:54.959Z,8.10
2019-03-31T02:28:36.760Z,8.10
2019-03-31T02:31:53.276Z,8.10
2019-03-31T02:52:48.813Z,7.60
2019-03-31T02:59:32.238Z,7.50
2019-03-31T03:06:13.051Z,7.80
2019-03-31T03:08:44.574Z,7.80
2019-03-31T03:11:16.826Z,8.00
2019-03-31T03:13:49.435Z,7.90
2019-03-31T03:16:22.711Z,8.00
2019-03-31T03:18:52.401Z,8.00
2019-03-31T03:21:24.775Z,8.10
2019-03-31T03:23:53.390Z,8.10
2019-03-31T03:26:22.954Z,8.10
2019-03-31T03:28:52.413Z,8.20
2019-03-31T03:31:21.951Z,8.20
2019-03-31T03:33:51.532Z,8.20
2019-03-31T03:36:22.088Z,8.10
2019-03-31T03:38:51.594Z,8.10
2019-03-31T03:41:21.207Z,8.20
2019-03-31T03:43:55.841Z,8.20
2019-03-31T03:46:22.096Z,8.10
2019-03-31T03:48:53.825Z,8.10
2019-03-31T03:51:23.146Z,8.10
2019-03-31T03:53:52.702Z,7.90
2019-03-31T03:56:22.218Z,7.80
2019-03-31T03:58:51.877Z,7.60
2019-03-31T04:01:23.469Z,7.60
2019-03-31T04:03:53.203Z,7.60
2019-03-31T04:06:22.851Z,7.70
2019-03-31T04:08:52.579Z,7.70
2019-03-31T04:11:26.585Z,7.70
2019-03-31T04:13:56.509Z,7.70
2019-03-31T04:16:26.309Z,7.70
2019-03-31T04:18:56.218Z,7.70
2019-03-31T04:21:26.067Z,7.70
2019-03-31T04:23:55.938Z,7.70
2019-03-31T04:26:25.763Z,7.70
2019-03-31T04:28:55.361Z,7.50
2019-03-31T04:31:25.031Z,7.60
2019-03-31T04:33:54.719Z,7.60
2019-03-31T04:36:24.232Z,7.60
2019-03-31T04:38:53.931Z,7.50
2019-03-31T04:41:23.495Z,7.50
2019-03-31T04:43:53.001Z,7.50
2019-03-31T04:46:22.514Z,7.50
2019-03-31T04:48:52.215Z,7.40
2019-03-31T04:51:21.773Z,7.40
2019-03-31T04:53:51.335Z,7.40
2019-03-31T04:56:20.954Z,7.40
2019-03-31T04:58:50.487Z,7.40
2019-03-31T05:01:20.059Z,7.40
2019-03-31T05:04:03.389Z,7.40
2019-03-31T05:06:20.841Z,7.30
2019-03-31T05:08:50.380Z,7.30
2019-03-31T05:11:19.927Z,7.20
2019-03-31T05:13:49.426Z,7.20
2019-03-31T05:16:19.115Z,7.10
2019-03-31T05:18:48.511Z,7.00
2019-03-31T05:21:18.224Z,7.00
2019-03-31T05:23:47.626Z,6.80
2019-03-31T05:26:17.182Z,6.80
2019-03-31T05:28:46.664Z,6.80
2019-03-31T05:31:16.132Z,6.80
2019-03-31T05:33:45.585Z,6.70
2019-03-31T05:36:15.100Z,6.70
2019-03-31T05:38:44.720Z,6.70
2019-03-31T05:41:14.051Z,6.60
2019-03-31T05:43:43.562Z,6.60
2019-03-31T05:46:13.013Z,6.60
2019-03-31T05:48:42.354Z,6.50
2019-03-31T05:51:11.855Z,6.50
2019-03-31T05:53:41.306Z,6.50
2019-03-31T05:56:10.798Z,6.60
2019-03-31T05:58:40.174Z,6.50
2019-03-31T06:01:09.721Z,6.50
2019-03-31T06:03:39.293Z,6.50
2019-03-31T06:06:08.834Z,6.50
2019-03-31T06:08:38.417Z,6.60
2019-03-31T06:11:08.072Z,6.60
2019-03-31T06:13:37.880Z,6.50
2019-03-31T06:16:07.642Z,6.60
2019-03-31T06:18:37.191Z,6.70
2019-03-31T06:21:06.789Z,6.70
2019-03-31T06:24:27.997Z,6.80
2019-03-31T06:27:40.238Z,6.80
2019-03-31T06:30:40.246Z,6.80
2019-03-31T06:33:09.759Z,6.90
2019-03-31T06:35:39.187Z,7.00
2019-03-31T06:38:08.648Z,7.00
2019-03-31T06:40:40.261Z,7.00
2019-03-31T06:43:10.270Z,7.00
2019-03-31T06:45:40.050Z,7.10
2019-03-31T06:50:58.646Z,7.20
2019-03-31T06:53:28.267Z,7.20
2019-03-31T06:55:57.915Z,7.20
2019-03-31T06:58:27.674Z,7.30
2019-03-31T07:00:57.563Z,7.40
2019-03-31T07:03:27.268Z,7.50
2019-03-31T07:05:57.315Z,7.60
2019-03-31T07:08:26.877Z,7.60
2019-03-31T07:10:56.553Z,7.60
2019-03-31T07:13:28.293Z,7.60
2019-03-31T07:15:58.048Z,7.60
2019-03-31T07:18:28.731Z,7.70
2019-03-31T07:20:58.462Z,7.80
2019-03-31T07:23:28.242Z,7.90
2019-03-31T07:25:57.992Z,7.90
2019-03-31T07:28:28.461Z,7.90
2019-03-31T07:30:59.541Z,7.90
2019-03-31T07:33:43.607Z,7.90
2019-03-31T07:36:15.504Z,7.80
2019-03-31T07:38:45.997Z,7.80
2019-03-31T07:41:17.383Z,8.00
2019-03-31T07:43:47.721Z,7.90
2019-03-31T07:46:17.772Z,7.80
2019-03-31T07:49:05.256Z,7.80
2019-03-31T07:52:00.378Z,7.70
2019-03-31T07:54:48.818Z,7.70
2019-03-31T07:57:24.715Z,7.80
2019-03-31T08:00:37.471Z,7.70
2019-03-31T08:04:02.625Z,7.80
2019-03-31T08:06:45.379Z,8.00
2019-03-31T08:10:00.074Z,8.10
2019-03-31T08:13:55.024Z,8.20
2019-03-31T08:16:09.003Z,8.30
2019-03-31T08:18:38.898Z,8.30
2019-03-31T08:21:39.750Z,8.20
2019-03-31T08:24:11.819Z,8.10
2019-03-31T08:30:45.550Z,8.20
2019-03-31T08:33:18.471Z,8.30
2019-03-31T08:35:48.763Z,8.30
2019-03-31T08:38:30.940Z,8.30
2019-03-31T08:41:14.775Z,8.30
2019-03-31T08:43:42.415Z,8.20
2019-03-31T08:46:32.567Z,8.20
2019-03-31T08:49:06.973Z,8.20
2019-03-31T08:51:44.428Z,8.30
2019-03-31T08:54:17.078Z,8.30
2019-03-31T08:56:47.127Z,8.20
2019-03-31T08:59:17.170Z,8.10
2019-03-31T09:01:46.943Z,8.10
2019-03-31T09:04:17.550Z,8.20
2019-03-31T09:06:47.655Z,8.20
2019-03-31T09:09:29.451Z,8.20
2019-03-31T09:12:08.884Z,8.20
2019-03-31T09:14:49.963Z,8.20
2019-03-31T09:17:20.633Z,8.30
2019-03-31T09:19:56.891Z,8.30
2019-03-31T09:22:26.771Z,8.30
2019-03-31T09:24:56.990Z,8.20
2019-03-31T09:27:35.457Z,8.10
2019-03-31T09:30:10.613Z,8.20
2019-03-31T09:32:40.438Z,8.20
2019-03-31T09:35:13.070Z,8.30
2019-03-31T09:37:42.943Z,8.30
2019-03-31T09:40:15.627Z,8.30
2019-03-31T09:42:46.295Z,8.30
2019-03-31T09:45:36.940Z,8.30
2019-03-31T09:48:10.133Z,8.30
2019-03-31T09:50:43.297Z,8.40
2019-03-31T09:53:19.918Z,8.40
2019-03-31T09:55:51.406Z,8.50
2019-03-31T09:58:23.804Z,8.60
2019-03-31T10:00:56.776Z,8.60
2019-03-31T10:03:29.117Z,8.70
2019-03-31T10:06:10.022Z,8.80
2019-03-31T10:08:30.861Z,8.80
2019-03-31T10:11:05.063Z,8.80
2019-03-31T10:13:34.268Z,8.90
2019-03-31T10:16:04.066Z,8.80
2019-03-31T10:18:34.467Z,8.80
2019-03-31T10:21:06.132Z,8.80
2019-03-31T10:23:39.393Z,8.80
2019-03-31T10:26:09.582Z,8.90
2019-03-31T10:29:01.598Z,9.00
2019-03-31T10:31:32.104Z,9.00
2019-03-31T10:34:02.454Z,9.10
2019-03-31T10:36:44.349Z,9.10
2019-03-31T10:39:09.889Z,9.10
2019-03-31T10:41:41.119Z,9.00
2019-03-31T10:44:10.835Z,9.10
2019-03-31T10:46:40.657Z,9.10
2019-03-31T10:49:11.297Z,9.20
2019-03-31T10:51:56.300Z,9.30
2019-03-31T10:54:26.206Z,9.40
2019-03-31T10:56:55.990Z,9.50
2019-03-31T10:59:25.660Z,9.60
2019-03-31T11:01:55.458Z,9.60
2019-03-31T11:04:25.132Z,9.60
2019-03-31T11:06:59.638Z,9.70
2019-03-31T11:09:26.288Z,9.80
2019-03-31T11:11:57.014Z,9.90
2019-03-31T11:14:27.053Z,9.90
2019-03-31T11:17:02.355Z,9.90
2019-03-31T11:19:33.268Z,10.00
2019-03-31T11:25:20.592Z,9.90
2019-03-31T11:27:46.645Z,9.80
2019-03-31T11:30:20.037Z,9.80
2019-03-31T11:33:08.979Z,9.80
2019-03-31T11:35:38.695Z,10.00
2019-03-31T11:38:18.997Z,10.00
2019-03-31T11:40:49.219Z,10.10
2019-03-31T11:43:20.802Z,10.10
2019-03-31T11:46:12.360Z,10.10
2019-03-31T11:49:20.380Z,10.10
2019-03-31T11:52:01.946Z,10.10
2019-03-31T11:57:20.240Z,10.30
2019-03-31T12:00:06.449Z,10.20
2019-03-31T12:03:19.830Z,10.20
2019-03-31T12:06:18.516Z,10.30
2019-03-31T12:08:52.852Z,10.20
2019-03-31T12:11:54.474Z,10.00
2019-03-31T12:14:43.371Z,9.90
2019-03-31T12:17:28.248Z,9.80
2019-03-31T12:20:00.375Z,10.00
2019-03-31T12:22:46.008Z,10.10
2019-03-31T12:25:14.508Z,10.10
2019-03-31T12:27:57.309Z,10.10
2019-03-31T12:31:02.801Z,10.10
2019-03-31T12:34:12.471Z,10.30
2019-03-31T12:37:06.472Z,10.30
2019-03-31T12:40:15.319Z,10.40
2019-03-31T12:42:50.026Z,10.40
2019-03-31T12:45:45.020Z,10.30
2019-03-31T12:48:24.091Z,10.40
2019-03-31T12:57:33.532Z,10.40
2019-03-31T13:00:58.757Z,10.30
2019-03-31T13:03:41.556Z,10.40
2019-03-31T13:12:34.809Z,10.70
2019-03-31T13:15:54.556Z,10.80
2019-03-31T13:19:05.334Z,10.80
2019-03-31T13:21:38.123Z,10.70
2019-03-31T13:24:09.646Z,10.40
2019-03-31T13:26:55.675Z,10.30
2019-03-31T13:29:55.449Z,10.30
2019-03-31T13:32:44.981Z,10.30
2019-03-31T13:35:22.490Z,10.30
2019-03-31T13:37:55.408Z,10.30
2019-03-31T13:43:40.613Z,10.30
2019-03-31T13:46:20.958Z,10.30
2019-03-31T13:48:55.900Z,10.30
2019-03-31T13:51:26.982Z,10.30
2019-03-31T13:54:25.131Z,10.40
2019-03-31T13:57:15.155Z,10.40
2019-03-31T13:59:49.993Z,10.40
2019-03-31T14:02:24.776Z,10.40
2019-03-31T14:08:03.053Z,10.30
2019-03-31T14:10:37.027Z,10.40
2019-03-31T14:13:15.309Z,10.50
2019-03-31T14:16:29.127Z,10.50
2019-03-31T14:22:44.535Z,10.40
2019-03-31T14:25:14.555Z,10.30
2019-03-31T14:28:11.709Z,10.40
2019-03-31T14:30:43.052Z,10.40
2019-03-31T14:33:52.329Z,10.30
2019-03-31T14:37:02.894Z,10.30
2019-03-31T14:44:26.910Z,10.40
2019-03-31T14:50:03.203Z,10.30
2019-03-31T14:56:29.142Z,10.30
2019-03-31T14:59:24.342Z,10.30
2019-03-31T15:02:13.632Z,10.20
2019-03-31T15:26:02.141Z,10.20
2019-03-31T15:31:27.036Z,10.30
2019-03-31T15:33:56.877Z,10.20
2019-03-31T15:36:28.404Z,10.20
2019-03-31T15:43:04.731Z,10.20
2019-03-31T15:54:32.846Z,10.10
2019-03-31T16:02:37.400Z,10.00
2019-03-31T16:21:44.318Z,9.70
2019-03-31T16:27:08.574Z,9.80
2019-03-31T16:29:38.730Z,9.70
2019-03-31T16:32:11.813Z,9.60
2019-03-31T16:34:43.105Z,9.60
2019-03-31T16:37:12.676Z,9.50
2019-03-31T16:39:48.504Z,9.50
2019-03-31T16:42:17.915Z,9.50
2019-03-31T16:44:57.978Z,9.50
2019-03-31T16:47:31.595Z,9.50
2019-03-31T16:50:00.621Z,9.50
2019-03-31T16:52:30.182Z,9.40
2019-03-31T16:55:00.069Z,9.40
2019-03-31T16:57:32.581Z,9.30
2019-03-31T17:00:02.166Z,9.30
2019-03-31T17:02:52.124Z,9.20
2019-03-31T17:05:22.623Z,9.20
2019-03-31T17:12:06.135Z,9.20
2019-03-31T17:14:35.433Z,9.10
2019-03-31T17:17:04.753Z,9.00
2019-03-31T17:19:33.953Z,8.90
2019-03-31T17:22:03.821Z,8.80
2019-03-31T17:24:33.184Z,8.80
2019-03-31T17:27:02.828Z,8.70
2019-03-31T17:29:31.927Z,8.70
2019-03-31T17:32:01.204Z,8.60
2019-03-31T17:34:30.611Z,8.60
2019-03-31T17:37:02.843Z,8.60
2019-03-31T17:39:35.059Z,8.50
2019-03-31T17:42:14.636Z,8.40
2019-03-31T17:44:45.121Z,8.40
2019-03-31T17:47:14.903Z,8.30
2019-03-31T17:49:43.799Z,8.30
2019-03-31T17:52:12.949Z,8.10
2019-03-31T17:54:41.911Z,8.10
2019-03-31T17:57:11.741Z,8.10
2019-03-31T17:59:41.006Z,8.00
2019-03-31T18:02:13.302Z,7.90
2019-03-31T18:04:42.544Z,7.80
2019-03-31T18:07:11.451Z,7.70
2019-03-31T18:09:40.562Z,7.70
2019-03-31T18:12:09.679Z,7.60
2019-03-31T18:14:38.639Z,7.60
2019-03-31T18:17:07.684Z,7.50
2019-03-31T18:19:36.688Z,7.50
2019-03-31T18:22:16.252Z,7.40
2019-03-31T18:24:39.450Z,7.40
2019-03-31T18:27:08.720Z,7.30
2019-03-31T18:29:37.869Z,7.30
2019-03-31T18:32:09.420Z,7.20
2019-03-31T18:34:39.424Z,7.20
2019-03-31T18:37:08.618Z,7.20
2019-03-31T18:39:37.836Z,7.10
2019-03-31T18:42:06.914Z,7.10
2019-03-31T18:44:36.046Z,7.10
2019-03-31T18:47:05.428Z,7.00
2019-03-31T18:49:36.566Z,6.90
2019-03-31T18:52:05.694Z,6.90
2019-03-31T18:54:57.097Z,6.90
2019-03-31T18:57:33.598Z,6.80
2019-03-31T19:00:12.147Z,6.80
2019-03-31T19:03:10.696Z,6.70
2019-03-31T19:06:03.651Z,6.70
2019-03-31T19:08:47.203Z,6.50
2019-03-31T19:11:34.013Z,6.50
2019-03-31T19:14:25.577Z,6.50
2019-03-31T19:17:13.834Z,6.50
2019-03-31T19:19:50.782Z,6.50
2019-03-31T19:22:37.499Z,6.40
2019-03-31T19:25:38.006Z,6.40
2019-03-31T19:28:24.564Z,6.40
2019-03-31T19:31:03.656Z,6.30
2019-03-31T19:33:51.867Z,6.30
2019-03-31T19:36:30.124Z,6.20
2019-03-31T19:39:18.087Z,6.00
2019-03-31T19:42:15.242Z,5.90
2019-03-31T19:45:02.301Z,6.10
2019-03-31T19:47:50.366Z,6.00
2019-03-31T19:50:47.836Z,6.10
2019-03-31T19:53:38.972Z,6.00
2019-03-31T19:56:24.884Z,6.00
2019-03-31T19:59:14.322Z,6.00
2019-03-31T20:01:52.451Z,5.90
2019-03-31T20:04:34.492Z,5.90
2019-03-31T20:07:13.430Z,5.80
2019-03-31T20:09:51.656Z,5.80
2019-03-31T20:12:42.483Z,5.70
2019-03-31T20:15:25.070Z,5.70
2019-03-31T20:18:13.273Z,5.70
2019-03-31T20:21:02.507Z,5.60
2019-03-31T20:24:03.226Z,5.60
2019-03-31T20:26:41.325Z,5.50
2019-03-31T20:29:20.997Z,5.40
2019-03-31T20:32:10.525Z,5.40
2019-03-31T20:34:58.915Z,5.40
2019-03-31T20:37:50.953Z,5.30
2019-03-31T20:40:56.930Z,5.30
2019-03-31T20:44:03.229Z,5.30
2019-03-31T20:55:19.816Z,5.00
2019-03-31T20:57:49.554Z,5.00
2019-03-31T21:01:04.001Z,5.00
2019-03-31T21:24:14.704Z,4.60
2019-03-31T21:30:15.405Z,4.50
2019-03-31T21:33:51.722Z,4.40
2019-03-31T21:36:52.870Z,4.30
2019-03-31T21:39:20.968Z,4.20
2019-03-31T21:41:51.151Z,4.10
2019-03-31T21:44:24.871Z,4.10
2019-03-31T21:49:30.690Z,4.10
2019-03-31T21:52:21.909Z,4.10
2019-03-31T21:54:51.785Z,4.10
2019-03-31T21:57:21.632Z,4.10
2019-03-31T21:59:51.200Z,4.00
2019-03-31T22:02:24.704Z,4.00
2019-03-31T22:04:54.378Z,4.00
2019-03-31T22:07:23.679Z,3.90
2019-03-31T22:09:52.895Z,3.80
2019-03-31T22:12:21.996Z,3.80
2019-03-31T22:14:51.075Z,3.80
2019-03-31T22:17:20.376Z,3.80
2019-03-31T22:19:49.880Z,3.80
2019-03-31T22:22:18.988Z,3.70
2019-03-31T22:24:48.295Z,3.70
2019-03-31T22:27:17.311Z,3.70
2019-03-31T22:29:46.408Z,3.70
2019-03-31T22:32:15.549Z,3.60
2019-03-31T22:34:45.035Z,3.60
2019-03-31T22:37:14.069Z,3.50
2019-03-31T22:39:43.325Z,3.50
2019-03-31T22:42:12.324Z,3.50
2019-03-31T22:44:41.421Z,3.50
2019-03-31T22:47:10.832Z,3.40
2019-03-31T22:49:41.756Z,3.50
2019-03-31T22:52:12.640Z,3.40
2019-03-31T22:54:42.066Z,3.40
2019-03-31T22:57:11.092Z,3.40
2019-03-31T22:59:40.217Z,3.40
2019-03-31T23:02:09.333Z,3.40
2019-03-31T23:04:38.720Z,3.40
2019-03-31T23:07:08.021Z,3.40
2019-03-31T23:09:37.596Z,3.30
2019-03-31T23:12:07.272Z,3.20
2019-03-31T23:14:36.615Z,3.10
2019-03-31T23:17:05.929Z,3.00
2019-03-31T23:19:35.453Z,3.00
2019-03-31T23:22:05.867Z,3.00
2019-03-31T23:24:35.217Z,2.90
2019-03-31T23:27:04.780Z,2.90
2019-03-31T23:29:34.030Z,2.90
2019-03-31T23:32:03.126Z,2.90
2019-03-31T23:34:32.324Z,2.90
2019-03-31T23:37:01.720Z,2.90
2019-03-31T23:39:31.072Z,2.80
2019-03-31T23:42:00.505Z,2.80
2019-03-31T23:44:29.730Z,2.70
2019-03-31T23:46:59.387Z,2.70
2019-03-31T23:49:28.865Z,2.70
2019-03-31T23:51:58.029Z,2.70
2019-03-31T23:54:27.646Z,2.70
2019-03-31T23:56:57.452Z,2.70
2019-03-31T23:59:26.839Z,2.70
